sensor_id;sensor_type;location;lat;lon;timestamp;P1;durP1;ratioP1;P2;durP2;ratioP2
9720;SDS011;4899;42.644;23.366;2022-07-29T00:01:43;9.23;;;8.30;;
9720;SDS011;4899;42.644;23.366;2022-07-29T00:04:11;10.73;;;7.90;;
9720;SDS011;4899;42.644;23.366;2022-07-29T00:06:39;8.93;;;7.83;;
9720;SDS011;4899;42.644;23.366;2022-07-29T00:09:06;8.40;;;7.67;;
9720;SDS011;4899;42.644;23.366;2022-07-29T00:11:33;8.47;;;7.57;;
9720;SDS011;4899;42.644;23.366;2022-07-29T00:14:00;8.77;;;7.93;;
9720;SDS011;4899;42.644;23.366;2022-07-29T00:16:27;8.57;;;7.67;;
9720;SDS011;4899;42.644;23.366;2022-07-29T00:18:54;8.27;;;7.57;;
9720;SDS011;4899;42.644;23.366;2022-07-29T00:21:22;8.87;;;8.07;;
9720;SDS011;4899;42.644;23.366;2022-07-29T00:23:49;9.87;;;8.23;;
9720;SDS011;4899;42.644;23.366;2022-07-29T00:26:16;11.47;;;8.00;;
9720;SDS011;4899;42.644;23.366;2022-07-29T00:28:43;8.43;;;7.70;;
9720;SDS011;4899;42.644;23.366;2022-07-29T00:31:09;9.80;;;8.77;;
9720;SDS011;4899;42.644;23.366;2022-07-29T00:33:36;9.60;;;8.60;;
9720;SDS011;4899;42.644;23.366;2022-07-29T00:36:03;8.80;;;8.10;;
9720;SDS011;4899;42.644;23.366;2022-07-29T00:38:31;9.07;;;7.80;;
9720;SDS011;4899;42.644;23.366;2022-07-29T00:40:57;9.47;;;8.03;;
9720;SDS011;4899;42.644;23.366;2022-07-29T00:43:24;10.80;;;8.53;;
9720;SDS011;4899;42.644;23.366;2022-07-29T00:45:52;7.83;;;7.23;;
9720;SDS011;4899;42.644;23.366;2022-07-29T00:48:19;8.53;;;7.63;;
9720;SDS011;4899;42.644;23.366;2022-07-29T00:50:45;8.47;;;7.57;;
9720;SDS011;4899;42.644;23.366;2022-07-29T00:53:12;8.70;;;7.70;;
9720;SDS011;4899;42.644;23.366;2022-07-29T00:55:41;8.77;;;7.97;;
9720;SDS011;4899;42.644;23.366;2022-07-29T00:58:07;9.93;;;8.23;;
9720;SDS011;4899;42.644;23.366;2022-07-29T01:00:35;10.23;;;7.77;;
9720;SDS011;4899;42.644;23.366;2022-07-29T01:03:01;8.27;;;7.53;;
9720;SDS011;4899;42.644;23.366;2022-07-29T01:05:28;9.13;;;8.23;;
9720;SDS011;4899;42.644;23.366;2022-07-29T01:07:56;12.70;;;8.50;;
9720;SDS011;4899;42.644;23.366;2022-07-29T01:10:24;11.30;;;9.73;;
9720;SDS011;4899;42.644;23.366;2022-07-29T01:12:54;8.70;;;7.90;;
9720;SDS011;4899;42.644;23.366;2022-07-29T01:15:23;8.93;;;8.13;;
9720;SDS011;4899;42.644;23.366;2022-07-29T01:17:52;8.27;;;7.57;;
9720;SDS011;4899;42.644;23.366;2022-07-29T01:20:26;9.03;;;8.13;;
9720;SDS011;4899;42.644;23.366;2022-07-29T01:23:11;12.27;;;8.57;;
9720;SDS011;4899;42.644;23.366;2022-07-29T01:26:00;9.33;;;8.53;;
9720;SDS011;4899;42.644;23.366;2022-07-29T01:28:48;11.77;;;8.20;;
9720;SDS011;4899;42.644;23.366;2022-07-29T01:31:22;8.77;;;7.93;;
9720;SDS011;4899;42.644;23.366;2022-07-29T01:33:55;10.73;;;8.87;;
9720;SDS011;4899;42.644;23.366;2022-07-29T01:36:27;9.27;;;8.53;;
9720;SDS011;4899;42.644;23.366;2022-07-29T01:38:59;10.33;;;9.43;;
9720;SDS011;4899;42.644;23.366;2022-07-29T01:41:32;10.23;;;9.23;;
9720;SDS011;4899;42.644;23.366;2022-07-29T01:44:08;9.90;;;8.90;;
9720;SDS011;4899;42.644;23.366;2022-07-29T01:46:40;9.53;;;8.63;;
9720;SDS011;4899;42.644;23.366;2022-07-29T01:49:11;11.80;;;8.60;;
9720;SDS011;4899;42.644;23.366;2022-07-29T01:51:44;10.33;;;9.33;;
9720;SDS011;4899;42.644;23.366;2022-07-29T01:54:18;9.27;;;8.37;;
9720;SDS011;4899;42.644;23.366;2022-07-29T01:56:48;14.97;;;9.30;;
9720;SDS011;4899;42.644;23.366;2022-07-29T01:59:18;10.83;;;8.30;;
9720;SDS011;4899;42.644;23.366;2022-07-29T02:01:48;11.87;;;8.40;;
9720;SDS011;4899;42.644;23.366;2022-07-29T02:04:19;9.67;;;8.83;;
9720;SDS011;4899;42.644;23.366;2022-07-29T02:06:47;10.03;;;8.83;;
9720;SDS011;4899;42.644;23.366;2022-07-29T02:09:17;14.27;;;9.07;;
9720;SDS011;4899;42.644;23.366;2022-07-29T02:11:47;10.97;;;9.67;;
9720;SDS011;4899;42.644;23.366;2022-07-29T02:14:19;10.13;;;9.23;;
9720;SDS011;4899;42.644;23.366;2022-07-29T02:16:50;9.77;;;8.87;;
9720;SDS011;4899;42.644;23.366;2022-07-29T02:19:21;9.30;;;8.40;;
9720;SDS011;4899;42.644;23.366;2022-07-29T02:21:50;10.50;;;9.40;;
9720;SDS011;4899;42.644;23.366;2022-07-29T02:24:19;10.03;;;8.83;;
9720;SDS011;4899;42.644;23.366;2022-07-29T02:26:47;8.20;;;7.47;;
9720;SDS011;4899;42.644;23.366;2022-07-29T02:29:16;9.37;;;8.57;;
9720;SDS011;4899;42.644;23.366;2022-07-29T02:31:46;8.53;;;7.73;;
9720;SDS011;4899;42.644;23.366;2022-07-29T02:34:15;8.83;;;7.57;;
9720;SDS011;4899;42.644;23.366;2022-07-29T02:36:44;9.53;;;8.50;;
9720;SDS011;4899;42.644;23.366;2022-07-29T02:39:12;10.40;;;9.07;;
9720;SDS011;4899;42.644;23.366;2022-07-29T02:41:41;9.87;;;8.93;;
9720;SDS011;4899;42.644;23.366;2022-07-29T02:44:11;11.17;;;9.17;;
9720;SDS011;4899;42.644;23.366;2022-07-29T02:46:42;9.33;;;8.30;;
9720;SDS011;4899;42.644;23.366;2022-07-29T02:49:16;9.47;;;8.53;;
9720;SDS011;4899;42.644;23.366;2022-07-29T02:51:49;10.80;;;9.13;;
9720;SDS011;4899;42.644;23.366;2022-07-29T02:54:22;9.00;;;8.00;;
9720;SDS011;4899;42.644;23.366;2022-07-29T02:56:53;10.60;;;8.10;;
9720;SDS011;4899;42.644;23.366;2022-07-29T02:59:23;8.93;;;8.20;;
9720;SDS011;4899;42.644;23.366;2022-07-29T03:01:55;11.70;;;7.60;;
9720;SDS011;4899;42.644;23.366;2022-07-29T03:04:25;12.07;;;7.50;;
9720;SDS011;4899;42.644;23.366;2022-07-29T03:06:54;8.33;;;7.63;;
9720;SDS011;4899;42.644;23.366;2022-07-29T03:09:24;12.13;;;7.77;;
9720;SDS011;4899;42.644;23.366;2022-07-29T03:11:53;7.73;;;7.07;;
9720;SDS011;4899;42.644;23.366;2022-07-29T03:14:21;8.10;;;7.30;;
9720;SDS011;4899;42.644;23.366;2022-07-29T03:16:49;9.33;;;7.73;;
9720;SDS011;4899;42.644;23.366;2022-07-29T03:19:18;11.30;;;8.30;;
9720;SDS011;4899;42.644;23.366;2022-07-29T03:21:46;10.77;;;8.60;;
9720;SDS011;4899;42.644;23.366;2022-07-29T03:24:26;11.17;;;8.87;;
9720;SDS011;4899;42.644;23.366;2022-07-29T03:26:55;9.53;;;8.33;;
9720;SDS011;4899;42.644;23.366;2022-07-29T03:29:23;11.03;;;9.93;;
9720;SDS011;4899;42.644;23.366;2022-07-29T03:31:50;10.83;;;9.73;;
9720;SDS011;4899;42.644;23.366;2022-07-29T03:34:19;12.60;;;9.53;;
9720;SDS011;4899;42.644;23.366;2022-07-29T03:36:46;14.50;;;9.50;;
9720;SDS011;4899;42.644;23.366;2022-07-29T03:39:14;10.47;;;9.40;;
9720;SDS011;4899;42.644;23.366;2022-07-29T03:41:44;12.37;;;9.17;;
9720;SDS011;4899;42.644;23.366;2022-07-29T03:44:13;11.87;;;9.40;;
9720;SDS011;4899;42.644;23.366;2022-07-29T03:46:43;10.20;;;9.30;;
9720;SDS011;4899;42.644;23.366;2022-07-29T03:49:10;10.93;;;9.73;;
9720;SDS011;4899;42.644;23.366;2022-07-29T03:51:40;11.50;;;9.77;;
9720;SDS011;4899;42.644;23.366;2022-07-29T03:54:07;14.77;;;9.73;;
9720;SDS011;4899;42.644;23.366;2022-07-29T03:56:34;12.43;;;10.63;;
9720;SDS011;4899;42.644;23.366;2022-07-29T03:59:04;9.97;;;8.97;;
9720;SDS011;4899;42.644;23.366;2022-07-29T04:01:32;14.00;;;9.57;;
9720;SDS011;4899;42.644;23.366;2022-07-29T04:04:00;9.93;;;8.93;;
9720;SDS011;4899;42.644;23.366;2022-07-29T04:06:28;12.07;;;9.00;;
9720;SDS011;4899;42.644;23.366;2022-07-29T04:08:57;11.93;;;9.00;;
9720;SDS011;4899;42.644;23.366;2022-07-29T04:11:23;9.27;;;8.37;;
9720;SDS011;4899;42.644;23.366;2022-07-29T04:13:50;9.07;;;8.17;;
9720;SDS011;4899;42.644;23.366;2022-07-29T04:16:17;9.50;;;8.57;;
9720;SDS011;4899;42.644;23.366;2022-07-29T04:18:44;8.93;;;8.03;;
9720;SDS011;4899;42.644;23.366;2022-07-29T04:21:11;9.47;;;8.00;;
9720;SDS011;4899;42.644;23.366;2022-07-29T04:23:37;9.00;;;8.10;;
9720;SDS011;4899;42.644;23.366;2022-07-29T04:26:06;8.57;;;7.73;;
9720;SDS011;4899;42.644;23.366;2022-07-29T04:28:34;8.50;;;7.43;;
9720;SDS011;4899;42.644;23.366;2022-07-29T04:31:01;8.33;;;7.63;;
9720;SDS011;4899;42.644;23.366;2022-07-29T04:33:28;8.67;;;7.80;;
9720;SDS011;4899;42.644;23.366;2022-07-29T04:35:55;11.23;;;10.30;;
9720;SDS011;4899;42.644;23.366;2022-07-29T04:38:21;10.30;;;8.30;;
9720;SDS011;4899;42.644;23.366;2022-07-29T04:40:48;8.00;;;7.20;;
9720;SDS011;4899;42.644;23.366;2022-07-29T04:43:16;8.03;;;7.33;;
9720;SDS011;4899;42.644;23.366;2022-07-29T04:45:43;8.87;;;7.70;;
9720;SDS011;4899;42.644;23.366;2022-07-29T04:48:10;7.23;;;6.57;;
9720;SDS011;4899;42.644;23.366;2022-07-29T04:50:37;10.00;;;7.73;;
9720;SDS011;4899;42.644;23.366;2022-07-29T04:53:04;8.37;;;7.20;;
9720;SDS011;4899;42.644;23.366;2022-07-29T04:55:31;8.53;;;7.53;;
9720;SDS011;4899;42.644;23.366;2022-07-29T04:57:58;7.73;;;7.00;;
9720;SDS011;4899;42.644;23.366;2022-07-29T05:00:26;7.30;;;6.70;;
9720;SDS011;4899;42.644;23.366;2022-07-29T05:02:53;8.20;;;7.40;;
9720;SDS011;4899;42.644;23.366;2022-07-29T05:05:20;7.60;;;6.80;;
9720;SDS011;4899;42.644;23.366;2022-07-29T05:07:47;7.57;;;6.77;;
9720;SDS011;4899;42.644;23.366;2022-07-29T05:10:14;7.63;;;6.93;;
9720;SDS011;4899;42.644;23.366;2022-07-29T05:12:40;8.80;;;7.70;;
9720;SDS011;4899;42.644;23.366;2022-07-29T05:15:08;8.60;;;7.80;;
9720;SDS011;4899;42.644;23.366;2022-07-29T05:17:37;13.33;;;12.00;;
9720;SDS011;4899;42.644;23.366;2022-07-29T05:20:04;7.80;;;7.00;;
9720;SDS011;4899;42.644;23.366;2022-07-29T05:22:32;8.10;;;7.40;;
9720;SDS011;4899;42.644;23.366;2022-07-29T05:24:59;7.90;;;6.90;;
9720;SDS011;4899;42.644;23.366;2022-07-29T05:27:25;7.63;;;7.03;;
9720;SDS011;4899;42.644;23.366;2022-07-29T05:29:52;9.57;;;6.90;;
9720;SDS011;4899;42.644;23.366;2022-07-29T05:32:19;8.53;;;7.73;;
9720;SDS011;4899;42.644;23.366;2022-07-29T05:34:47;9.77;;;8.87;;
9720;SDS011;4899;42.644;23.366;2022-07-29T05:37:14;9.63;;;8.73;;
9720;SDS011;4899;42.644;23.366;2022-07-29T05:39:41;7.73;;;6.93;;
9720;SDS011;4899;42.644;23.366;2022-07-29T05:42:08;7.57;;;6.77;;
9720;SDS011;4899;42.644;23.366;2022-07-29T05:44:36;8.20;;;7.37;;
9720;SDS011;4899;42.644;23.366;2022-07-29T05:47:03;8.00;;;7.23;;
9720;SDS011;4899;42.644;23.366;2022-07-29T05:49:30;10.30;;;7.67;;
9720;SDS011;4899;42.644;23.366;2022-07-29T05:51:58;8.17;;;7.20;;
9720;SDS011;4899;42.644;23.366;2022-07-29T05:54:25;8.33;;;7.70;;
9720;SDS011;4899;42.644;23.366;2022-07-29T05:56:51;7.83;;;7.03;;
9720;SDS011;4899;42.644;23.366;2022-07-29T05:59:18;8.13;;;7.33;;
9720;SDS011;4899;42.644;23.366;2022-07-29T06:01:45;9.80;;;7.00;;
9720;SDS011;4899;42.644;23.366;2022-07-29T06:04:12;8.07;;;7.27;;
9720;SDS011;4899;42.644;23.366;2022-07-29T06:06:39;9.63;;;6.73;;
9720;SDS011;4899;42.644;23.366;2022-07-29T06:09:07;7.23;;;6.33;;
9720;SDS011;4899;42.644;23.366;2022-07-29T06:11:34;9.23;;;6.53;;
9720;SDS011;4899;42.644;23.366;2022-07-29T06:14:00;9.33;;;6.20;;
9720;SDS011;4899;42.644;23.366;2022-07-29T06:16:28;8.17;;;6.60;;
9720;SDS011;4899;42.644;23.366;2022-07-29T06:18:55;7.07;;;6.47;;
9720;SDS011;4899;42.644;23.366;2022-07-29T06:21:22;10.63;;;7.57;;
9720;SDS011;4899;42.644;23.366;2022-07-29T06:23:49;8.07;;;7.07;;
9720;SDS011;4899;42.644;23.366;2022-07-29T06:26:17;7.40;;;6.70;;
9720;SDS011;4899;42.644;23.366;2022-07-29T06:28:44;9.00;;;7.37;;
9720;SDS011;4899;42.644;23.366;2022-07-29T06:31:10;7.57;;;6.87;;
9720;SDS011;4899;42.644;23.366;2022-07-29T06:33:37;8.93;;;8.03;;
9720;SDS011;4899;42.644;23.366;2022-07-29T06:36:04;9.10;;;7.20;;
9720;SDS011;4899;42.644;23.366;2022-07-29T06:38:32;9.40;;;7.73;;
9720;SDS011;4899;42.644;23.366;2022-07-29T06:40:59;8.60;;;7.20;;
9720;SDS011;4899;42.644;23.366;2022-07-29T06:43:28;9.83;;;7.67;;
9720;SDS011;4899;42.644;23.366;2022-07-29T06:45:59;8.77;;;7.87;;
9720;SDS011;4899;42.644;23.366;2022-07-29T06:48:27;9.63;;;8.57;;
9720;SDS011;4899;42.644;23.366;2022-07-29T06:50:55;8.70;;;7.90;;
9720;SDS011;4899;42.644;23.366;2022-07-29T06:53:22;7.90;;;7.10;;
9720;SDS011;4899;42.644;23.366;2022-07-29T06:55:49;7.70;;;7.00;;
9720;SDS011;4899;42.644;23.366;2022-07-29T06:58:16;7.67;;;7.03;;
9720;SDS011;4899;42.644;23.366;2022-07-29T07:00:46;7.73;;;6.70;;
9720;SDS011;4899;42.644;23.366;2022-07-29T07:03:13;6.33;;;5.83;;
9720;SDS011;4899;42.644;23.366;2022-07-29T07:05:40;9.60;;;6.07;;
9720;SDS011;4899;42.644;23.366;2022-07-29T07:08:07;6.80;;;6.17;;
9720;SDS011;4899;42.644;23.366;2022-07-29T07:10:35;7.60;;;6.43;;
9720;SDS011;4899;42.644;23.366;2022-07-29T07:13:02;6.90;;;6.20;;
9720;SDS011;4899;42.644;23.366;2022-07-29T07:15:29;6.67;;;5.70;;
9720;SDS011;4899;42.644;23.366;2022-07-29T07:17:59;6.73;;;6.13;;
9720;SDS011;4899;42.644;23.366;2022-07-29T07:20:26;6.03;;;5.53;;
9720;SDS011;4899;42.644;23.366;2022-07-29T07:22:53;5.63;;;5.07;;
9720;SDS011;4899;42.644;23.366;2022-07-29T07:25:19;7.03;;;5.73;;
9720;SDS011;4899;42.644;23.366;2022-07-29T07:27:46;5.67;;;5.20;;
9720;SDS011;4899;42.644;23.366;2022-07-29T07:30:13;5.47;;;4.97;;
9720;SDS011;4899;42.644;23.366;2022-07-29T07:32:40;5.37;;;4.87;;
9720;SDS011;4899;42.644;23.366;2022-07-29T07:35:09;10.80;;;8.77;;
9720;SDS011;4899;42.644;23.366;2022-07-29T07:37:37;6.80;;;5.63;;
9720;SDS011;4899;42.644;23.366;2022-07-29T07:40:05;6.40;;;5.07;;
9720;SDS011;4899;42.644;23.366;2022-07-29T07:42:34;6.90;;;6.33;;
9720;SDS011;4899;42.644;23.366;2022-07-29T07:45:01;5.60;;;4.90;;
9720;SDS011;4899;42.644;23.366;2022-07-29T07:47:27;4.83;;;4.20;;
9720;SDS011;4899;42.644;23.366;2022-07-29T07:49:54;4.83;;;4.30;;
9720;SDS011;4899;42.644;23.366;2022-07-29T07:52:22;4.70;;;4.30;;
9720;SDS011;4899;42.644;23.366;2022-07-29T07:54:49;4.93;;;3.87;;
9720;SDS011;4899;42.644;23.366;2022-07-29T07:57:16;7.33;;;4.30;;
9720;SDS011;4899;42.644;23.366;2022-07-29T07:59:43;4.70;;;4.30;;
9720;SDS011;4899;42.644;23.366;2022-07-29T08:02:10;5.00;;;4.33;;
9720;SDS011;4899;42.644;23.366;2022-07-29T08:04:37;6.40;;;4.90;;
9720;SDS011;4899;42.644;23.366;2022-07-29T08:07:05;13.07;;;4.53;;
9720;SDS011;4899;42.644;23.366;2022-07-29T08:09:35;8.13;;;5.07;;
9720;SDS011;4899;42.644;23.366;2022-07-29T08:12:02;14.97;;;5.70;;
9720;SDS011;4899;42.644;23.366;2022-07-29T08:14:31;13.07;;;4.43;;
9720;SDS011;4899;42.644;23.366;2022-07-29T08:16:58;9.40;;;4.50;;
9720;SDS011;4899;42.644;23.366;2022-07-29T08:19:30;4.83;;;4.07;;
9720;SDS011;4899;42.644;23.366;2022-07-29T08:21:56;5.33;;;3.80;;
9720;SDS011;4899;42.644;23.366;2022-07-29T08:24:23;5.80;;;3.83;;
9720;SDS011;4899;42.644;23.366;2022-07-29T08:27:09;5.67;;;3.90;;
9720;SDS011;4899;42.644;23.366;2022-07-29T08:29:36;3.73;;;3.43;;
9720;SDS011;4899;42.644;23.366;2022-07-29T08:32:04;6.13;;;3.93;;
9720;SDS011;4899;42.644;23.366;2022-07-29T08:34:31;4.20;;;3.90;;
9720;SDS011;4899;42.644;23.366;2022-07-29T08:36:58;4.40;;;4.00;;
9720;SDS011;4899;42.644;23.366;2022-07-29T08:39:25;4.97;;;3.53;;
9720;SDS011;4899;42.644;23.366;2022-07-29T08:41:52;3.77;;;3.30;;
9720;SDS011;4899;42.644;23.366;2022-07-29T08:44:21;7.33;;;3.77;;
9720;SDS011;4899;42.644;23.366;2022-07-29T08:46:48;4.03;;;3.00;;
9720;SDS011;4899;42.644;23.366;2022-07-29T08:49:15;4.85;;;3.17;;
9720;SDS011;4899;42.644;23.366;2022-07-29T08:51:42;4.88;;;3.80;;
9720;SDS011;4899;42.644;23.366;2022-07-29T08:54:10;4.10;;;3.53;;
9720;SDS011;4899;42.644;23.366;2022-07-29T08:56:42;4.15;;;3.70;;
9720;SDS011;4899;42.644;23.366;2022-07-29T08:59:09;3.63;;;3.15;;
9720;SDS011;4899;42.644;23.366;2022-07-29T09:01:38;4.82;;;4.40;;
9720;SDS011;4899;42.644;23.366;2022-07-29T09:04:09;3.95;;;3.63;;
9720;SDS011;4899;42.644;23.366;2022-07-29T09:06:39;3.83;;;3.33;;
9720;SDS011;4899;42.644;23.366;2022-07-29T09:09:10;15.75;;;4.35;;
9720;SDS011;4899;42.644;23.366;2022-07-29T09:12:09;45.17;;;6.95;;
9720;SDS011;4899;42.644;23.366;2022-07-29T09:14:30;9.48;;;5.18;;
9720;SDS011;4899;42.644;23.366;2022-07-29T09:17:02;6.63;;;4.65;;
9720;SDS011;4899;42.644;23.366;2022-07-29T09:19:29;6.13;;;4.05;;
9720;SDS011;4899;42.644;23.366;2022-07-29T09:22:00;16.05;;;4.72;;
9720;SDS011;4899;42.644;23.366;2022-07-29T09:24:41;33.30;;;6.80;;
9720;SDS011;4899;42.644;23.366;2022-07-29T09:27:31;11.52;;;4.70;;
9720;SDS011;4899;42.644;23.366;2022-07-29T09:30:05;10.32;;;4.25;;
9720;SDS011;4899;42.644;23.366;2022-07-29T09:36:01;4.13;;;3.30;;
9720;SDS011;4899;42.644;23.366;2022-07-29T09:38:35;17.15;;;5.18;;
9720;SDS011;4899;42.644;23.366;2022-07-29T09:41:30;6.07;;;4.13;;
9720;SDS011;4899;42.644;23.366;2022-07-29T09:44:13;55.17;;;8.32;;
9720;SDS011;4899;42.644;23.366;2022-07-29T09:47:12;46.92;;;8.10;;
9720;SDS011;4899;42.644;23.366;2022-07-29T09:52:44;16.60;;;5.47;;
9720;SDS011;4899;42.644;23.366;2022-07-29T09:55:13;8.07;;;4.35;;
9720;SDS011;4899;42.644;23.366;2022-07-29T09:57:42;38.53;;;7.50;;
9720;SDS011;4899;42.644;23.366;2022-07-29T10:00:41;51.95;;;8.43;;
9720;SDS011;4899;42.644;23.366;2022-07-29T10:03:58;38.45;;;7.97;;
9720;SDS011;4899;42.644;23.366;2022-07-29T10:06:55;7.13;;;4.50;;
9720;SDS011;4899;42.644;23.366;2022-07-29T10:09:25;3.95;;;3.63;;
9720;SDS011;4899;42.644;23.366;2022-07-29T10:15:21;50.40;;;9.35;;
9720;SDS011;4899;42.644;23.366;2022-07-29T10:18:17;34.88;;;7.55;;
9720;SDS011;4899;42.644;23.366;2022-07-29T10:21:00;46.15;;;8.38;;
9720;SDS011;4899;42.644;23.366;2022-07-29T10:23:27;12.13;;;6.30;;
9720;SDS011;4899;42.644;23.366;2022-07-29T10:29:07;10.20;;;5.60;;
9720;SDS011;4899;42.644;23.366;2022-07-29T10:32:08;7.85;;;5.65;;
9720;SDS011;4899;42.644;23.366;2022-07-29T10:37:57;5.97;;;5.43;;
9720;SDS011;4899;42.644;23.366;2022-07-29T10:40:39;26.23;;;6.50;;
9720;SDS011;4899;42.644;23.366;2022-07-29T10:43:34;12.00;;;6.68;;
9720;SDS011;4899;42.644;23.366;2022-07-29T10:46:11;21.13;;;7.47;;
9720;SDS011;4899;42.644;23.366;2022-07-29T10:49:04;4.43;;;3.88;;
9720;SDS011;4899;42.644;23.366;2022-07-29T10:54:41;27.95;;;7.00;;
9720;SDS011;4899;42.644;23.366;2022-07-29T10:57:16;23.13;;;5.30;;
9720;SDS011;4899;42.644;23.366;2022-07-29T11:03:00;5.00;;;4.55;;
9720;SDS011;4899;42.644;23.366;2022-07-29T11:05:27;4.10;;;3.58;;
9720;SDS011;4899;42.644;23.366;2022-07-29T11:08:17;3.95;;;3.65;;
9720;SDS011;4899;42.644;23.366;2022-07-29T11:10:49;4.13;;;3.78;;
9720;SDS011;4899;42.644;23.366;2022-07-29T11:16:16;4.22;;;3.83;;
9720;SDS011;4899;42.644;23.366;2022-07-29T11:21:49;4.43;;;4.13;;
9720;SDS011;4899;42.644;23.366;2022-07-29T11:27:21;4.28;;;3.88;;
9720;SDS011;4899;42.644;23.366;2022-07-29T11:30:10;34.25;;;6.40;;
9720;SDS011;4899;42.644;23.366;2022-07-29T11:32:38;3.50;;;3.30;;
9720;SDS011;4899;42.644;23.366;2022-07-29T11:35:14;4.78;;;4.30;;
9720;SDS011;4899;42.644;23.366;2022-07-29T11:37:45;20.60;;;4.68;;
9720;SDS011;4899;42.644;23.366;2022-07-29T11:40:15;11.35;;;4.55;;
9720;SDS011;4899;42.644;23.366;2022-07-29T11:43:53;49.22;;;7.82;;
9720;SDS011;4899;42.644;23.366;2022-07-29T11:46:18;3.92;;;2.97;;
9720;SDS011;4899;42.644;23.366;2022-07-29T11:52:46;5.28;;;3.88;;
9720;SDS011;4899;42.644;23.366;2022-07-29T11:58:28;20.23;;;6.38;;
9720;SDS011;4899;42.644;23.366;2022-07-29T12:01:30;3.88;;;3.60;;
9720;SDS011;4899;42.644;23.366;2022-07-29T12:04:02;4.78;;;4.35;;
9720;SDS011;4899;42.644;23.366;2022-07-29T12:06:30;11.20;;;4.47;;
9720;SDS011;4899;42.644;23.366;2022-07-29T12:09:03;4.25;;;3.95;;
9720;SDS011;4899;42.644;23.366;2022-07-29T12:15:38;5.10;;;3.92;;
9720;SDS011;4899;42.644;23.366;2022-07-29T12:19:56;4.20;;;3.97;;
9720;SDS011;4899;42.644;23.366;2022-07-29T12:21:03;5.00;;;4.50;;
9720;SDS011;4899;42.644;23.366;2022-07-29T12:23:33;9.30;;;5.03;;
9720;SDS011;4899;42.644;23.366;2022-07-29T12:26:03;4.07;;;3.78;;
9720;SDS011;4899;42.644;23.366;2022-07-29T12:28:36;17.27;;;5.55;;
9720;SDS011;4899;42.644;23.366;2022-07-29T12:34:27;18.15;;;11.98;;
9720;SDS011;4899;42.644;23.366;2022-07-29T12:36:57;4.97;;;4.45;;
9720;SDS011;4899;42.644;23.366;2022-07-29T12:39:57;10.93;;;4.78;;
9720;SDS011;4899;42.644;23.366;2022-07-29T12:43:06;18.35;;;9.50;;
9720;SDS011;4899;42.644;23.366;2022-07-29T12:45:37;10.43;;;7.35;;
9720;SDS011;4899;42.644;23.366;2022-07-29T12:54:51;4.88;;;4.40;;
9720;SDS011;4899;42.644;23.366;2022-07-29T12:57:17;4.70;;;4.40;;
9720;SDS011;4899;42.644;23.366;2022-07-29T13:02:43;15.07;;;5.20;;
9720;SDS011;4899;42.644;23.366;2022-07-29T13:05:41;7.20;;;4.43;;
9720;SDS011;4899;42.644;23.366;2022-07-29T13:08:12;4.65;;;4.22;;
9720;SDS011;4899;42.644;23.366;2022-07-29T13:11:26;11.45;;;5.22;;
9720;SDS011;4899;42.644;23.366;2022-07-29T13:14:13;4.63;;;4.22;;
9720;SDS011;4899;42.644;23.366;2022-07-29T13:17:02;5.18;;;4.47;;
9720;SDS011;4899;42.644;23.366;2022-07-29T13:19:36;4.90;;;4.50;;
9720;SDS011;4899;42.644;23.366;2022-07-29T13:22:05;4.38;;;4.07;;
9720;SDS011;4899;42.644;23.366;2022-07-29T13:24:44;4.90;;;4.50;;
9720;SDS011;4899;42.644;23.366;2022-07-29T13:27:28;5.22;;;4.47;;
9720;SDS011;4899;42.644;23.366;2022-07-29T13:30:00;4.72;;;4.43;;
9720;SDS011;4899;42.644;23.366;2022-07-29T13:34:26;14.82;;;6.28;;
9720;SDS011;4899;42.644;23.366;2022-07-29T13:36:00;5.18;;;4.85;;
9720;SDS011;4899;42.644;23.366;2022-07-29T13:38:27;4.80;;;4.40;;
9720;SDS011;4899;42.644;23.366;2022-07-29T13:42:02;6.55;;;4.60;;
9720;SDS011;4899;42.644;23.366;2022-07-29T13:44:33;6.32;;;4.65;;
9720;SDS011;4899;42.644;23.366;2022-07-29T13:52:15;12.50;;;5.63;;
9720;SDS011;4899;42.644;23.366;2022-07-29T13:53:41;11.85;;;5.57;;
9720;SDS011;4899;42.644;23.366;2022-07-29T13:56:40;11.57;;;5.15;;
9720;SDS011;4899;42.644;23.366;2022-07-29T14:00:33;6.50;;;4.32;;
9720;SDS011;4899;42.644;23.366;2022-07-29T14:02:07;4.40;;;4.05;;
9720;SDS011;4899;42.644;23.366;2022-07-29T14:05:05;6.65;;;5.03;;
9720;SDS011;4899;42.644;23.366;2022-07-29T14:08:00;4.47;;;4.18;;
9720;SDS011;4899;42.644;23.366;2022-07-29T14:10:28;4.40;;;4.10;;
9720;SDS011;4899;42.644;23.366;2022-07-29T14:20:26;9.30;;;4.80;;
9720;SDS011;4899;42.644;23.366;2022-07-29T14:23:35;4.53;;;4.00;;
9720;SDS011;4899;42.644;23.366;2022-07-29T14:26:43;6.90;;;4.55;;
9720;SDS011;4899;42.644;23.366;2022-07-29T14:32:19;4.32;;;3.92;;
9720;SDS011;4899;42.644;23.366;2022-07-29T14:35:06;4.72;;;4.35;;
9720;SDS011;4899;42.644;23.366;2022-07-29T14:37:43;5.00;;;4.30;;
9720;SDS011;4899;42.644;23.366;2022-07-29T14:41:13;7.22;;;5.10;;
9720;SDS011;4899;42.644;23.366;2022-07-29T14:46:57;4.70;;;4.40;;
9720;SDS011;4899;42.644;23.366;2022-07-29T14:49:26;4.68;;;4.28;;
9720;SDS011;4899;42.644;23.366;2022-07-29T14:51:59;4.80;;;4.35;;
9720;SDS011;4899;42.644;23.366;2022-07-29T14:54:27;5.10;;;4.70;;
9720;SDS011;4899;42.644;23.366;2022-07-29T14:57:17;25.92;;;6.68;;
9720;SDS011;4899;42.644;23.366;2022-07-29T15:00:12;8.68;;;4.90;;
9720;SDS011;4899;42.644;23.366;2022-07-29T15:02:55;4.70;;;4.30;;
9720;SDS011;4899;42.644;23.366;2022-07-29T15:05:24;4.72;;;4.38;;
9720;SDS011;4899;42.644;23.366;2022-07-29T15:08:16;8.45;;;5.00;;
9720;SDS011;4899;42.644;23.366;2022-07-29T15:14:22;5.03;;;4.63;;
9720;SDS011;4899;42.644;23.366;2022-07-29T15:16:49;4.60;;;4.20;;
9720;SDS011;4899;42.644;23.366;2022-07-29T15:19:17;5.53;;;4.50;;
9720;SDS011;4899;42.644;23.366;2022-07-29T15:21:46;4.90;;;4.45;;
9720;SDS011;4899;42.644;23.366;2022-07-29T15:24:15;4.65;;;4.25;;
9720;SDS011;4899;42.644;23.366;2022-07-29T15:26:58;16.35;;;5.47;;
9720;SDS011;4899;42.644;23.366;2022-07-29T15:30:06;8.65;;;5.07;;
9720;SDS011;4899;42.644;23.366;2022-07-29T15:41:03;4.35;;;3.97;;
9720;SDS011;4899;42.644;23.366;2022-07-29T15:43:30;4.60;;;3.88;;
9720;SDS011;4899;42.644;23.366;2022-07-29T15:45:57;4.35;;;4.05;;
9720;SDS011;4899;42.644;23.366;2022-07-29T15:49:12;24.52;;;6.15;;
9720;SDS011;4899;42.644;23.366;2022-07-29T15:51:32;7.07;;;4.82;;
9720;SDS011;4899;42.644;23.366;2022-07-29T15:54:18;21.45;;;6.03;;
9720;SDS011;4899;42.644;23.366;2022-07-29T15:59:29;4.72;;;4.40;;
9720;SDS011;4899;42.644;23.366;2022-07-29T16:02:11;3.67;;;3.47;;
9720;SDS011;4899;42.644;23.366;2022-07-29T16:04:45;21.88;;;5.47;;
9720;SDS011;4899;42.644;23.366;2022-07-29T16:08:13;10.75;;;5.07;;
9720;SDS011;4899;42.644;23.366;2022-07-29T16:10:41;18.20;;;5.72;;
9720;SDS011;4899;42.644;23.366;2022-07-29T16:13:11;22.83;;;5.82;;
9720;SDS011;4899;42.644;23.366;2022-07-29T16:15:56;4.13;;;3.72;;
9720;SDS011;4899;42.644;23.366;2022-07-29T16:18:39;16.65;;;5.95;;
9720;SDS011;4899;42.644;23.366;2022-07-29T16:21:06;15.43;;;5.28;;
9720;SDS011;4899;42.644;23.366;2022-07-29T16:24:18;37.28;;;7.22;;
9720;SDS011;4899;42.644;23.366;2022-07-29T16:26:53;17.27;;;5.88;;
9720;SDS011;4899;42.644;23.366;2022-07-29T16:29:55;4.28;;;3.97;;
9720;SDS011;4899;42.644;23.366;2022-07-29T16:38:52;22.63;;;6.97;;
9720;SDS011;4899;42.644;23.366;2022-07-29T16:51:15;32.53;;;8.52;;
9720;SDS011;4899;42.644;23.366;2022-07-29T16:56:16;24.55;;;6.57;;
9720;SDS011;4899;42.644;23.366;2022-07-29T16:57:47;6.63;;;4.45;;
9720;SDS011;4899;42.644;23.366;2022-07-29T17:00:58;12.05;;;5.13;;
9720;SDS011;4899;42.644;23.366;2022-07-29T17:04:13;42.40;;;9.23;;
9720;SDS011;4899;42.644;23.366;2022-07-29T17:06:59;7.40;;;6.40;;
9720;SDS011;4899;42.644;23.366;2022-07-29T17:12:38;14.55;;;5.65;;
9720;SDS011;4899;42.644;23.366;2022-07-29T17:15:18;36.33;;;7.25;;
9720;SDS011;4899;42.644;23.366;2022-07-29T17:18:09;56.50;;;9.23;;
9720;SDS011;4899;42.644;23.366;2022-07-29T17:27:07;10.73;;;5.03;;
9720;SDS011;4899;42.644;23.366;2022-07-29T17:29:37;31.30;;;6.90;;
9720;SDS011;4899;42.644;23.366;2022-07-29T17:32:30;5.00;;;4.50;;